EST,Max TemperatureF,Mean TemperatureF,Min TemperatureF,Max Dew PointF,MeanDew PointF,Min DewpointF,Max Humidity, Mean Humidity, Min Humidity, Max Sea Level PressureIn, Mean Sea Level PressureIn, Min Sea Level PressureIn, Max VisibilityMiles, Mean VisibilityMiles, Min VisibilityMiles, Max Wind SpeedMPH, Mean Wind SpeedMPH, Max Gust SpeedMPH,PrecipitationIn, CloudCover, Events, WindDirDegrees
2011-11-1,57,42,26,39,32,27,100,78,44,30.27,30.22,30.17,10,4,0,14,1,21,0.00,1,Fog,194
2011-11-2,66,51,36,39,37,33,93,62,37,30.22,30.13,30.02,10,10,10,15,6,22,0.00,0,,206
2011-11-3,50,43,36,45,40,34,93,77,63,30.15,30.04,29.99,10,10,6,15,6,22,0.00,5,,42
2011-11-4,53,41,30,34,30,23,88,69,34,30.36,30.27,30.15,10,10,10,12,8,18,0.00,0,,38
2011-11-5,54,41,28,33,29,26,93,72,34,30.39,30.32,30.22,10,10,6,9,4,,0.00,1,,113
2011-11-6,63,44,27,42,34,24,96,65,48,30.26,30.20,30.13,10,10,10,17,5,24,0.00,1,,198
2011-11-7,59,56,52,52,49,40,96,82,55,30.25,30.22,30.17,10,6,1,10,6,,0.05,8,Rain,220
2011-11-8,66,60,53,54,52,49,97,86,56,30.21,30.13,29.98,10,4,0,12,3,,0.04,7,Fog-Rain,143
2011-11-9,63,51,39,55,46,33,94,80,62,29.96,29.75,29.58,10,8,1,28,11,40,0.45,8,Rain,207
2011-11-10,44,38,32,35,31,26,92,81,49,29.95,29.89,29.86,10,9,1,25,12,31,0.00,6,Snow,249
2011-11-11,41,36,32,32,29,25,89,77,58,29.98,29.92,29.86,10,10,10,14,9,,0.00,5,,254
2011-11-12,60,44,28,38,33,25,85,65,42,29.89,29.84,29.79,10,10,10,18,8,25,0.00,0,,209
2011-11-13,63,56,50,53,44,35,72,63,54,29.77,29.60,29.49,10,10,10,24,15,37,0.00,5,,207
2011-11-14,59,48,37,45,40,34,100,83,48,29.72,29.63,29.55,10,6,0,16,6,28,0.67,4,Fog-Rain,263
2011-11-15,55,46,37,48,43,36,97,85,69,29.85,29.80,29.72,10,9,4,14,6,18,0.00,1,,210
2011-11-16,46,40,32,43,33,22,100,79,41,30.08,29.88,29.79,10,6,0,16,5,24,0.00,1,Fog,280
2011-11-17,37,30,23,23,20,17,81,68,48,30.25,30.11,30.04,10,9,2,21,8,31,0.00,3,Snow,259
2011-11-18,46,34,21,22,18,14,82,56,28,30.30,30.20,30.05,10,10,10,24,8,32,0.00,1,,209
2011-11-19,55,44,35,44,32,23,77,65,55,30.06,29.98,29.84,10,10,10,20,9,31,0.00,6,,200
2011-11-20,59,48,36,49,38,29,76,67,56,30.32,30.11,29.84,10,10,10,18,12,26,0.00,5,Rain,325
2011-11-21,45,39,32,31,29,27,85,73,56,30.38,30.33,30.27,10,10,10,9,5,,0.00,2,,70
2011-11-22,39,34,30,35,33,26,93,88,82,30.29,30.01,29.74,10,6,2,18,9,28,1.01,6,Rain,55
2011-11-23,51,42,32,36,33,29,93,79,43,30.21,30.05,29.78,10,9,5,16,10,45,0.08,3,Rain,312
2011-11-24,43,36,28,40,34,27,100,91,82,30.25,30.20,30.14,10,4,0,15,6,23,0.00,6,Fog,230
2011-11-25,57,48,39,41,39,36,93,72,53,30.13,30.04,29.96,10,9,6,18,10,25,0.00,0,,218
2011-11-26,60,50,41,50,43,37,89,72,62,30.04,29.97,29.86,10,10,10,13,7,21,0.00,3,,198
2011-11-27,55,46,37,54,45,32,94,90,80,30.06,29.86,29.75,10,9,4,36,11,128,0.57,8,Rain,291
2011-11-28,41,38,34,37,33,28,97,82,73,30.14,30.04,29.90,10,9,2,66,10,32,0.18,7,Rain,35
2011-11-29,39,36,33,37,35,31,100,94,87,29.92,29.70,29.56,10,3,1,30,16,116,1.54,8,Rain-Snow,14
2011-11-30,36,30,24,32,27,24,100,89,64,30.17,29.88,29.66,10,5,1,20,13,25,0.02,4,Snow,318